VESSL weather

Aviosuperficie "Parco Livenza"
San Stino di Livenza (VE), Veneto, Italy

Public forecast

Using degrees Celsius for public forecast. Weather courtesy of forecast.io.

METAR (pilot weather report)

Closest report is Aviano Air Base, 18.1 nm (33.5 km) NNW. Retrieved 2019/09/20 16:55 UTC (34 minutes ago):

LIPA 201655Z 27004KT 9999 FEW100 17/08 Q1024 RMK FEW VIS MIN 9999 WIND THR05 /////KT WIND THR23 /////KT A3026 BLU

TAF (pilot weather forecast)

Forecast is more than 12 hours old.

Closest forecast is Aviano Air Base, 18.1 nm (33.5 km) NNW. Retrieved 2015/11/03 12:24 UTC (4 years ago):

TAF TAF LIPA 031100Z 0312/0324 VRB03KT CAVOK